sensor_id;sensor_type;location;lat;lon;timestamp;temperature;humidity
8095;DHT22;4090;49.270;8.696;2023-05-19T00:00:15;17.40;78.70
8095;DHT22;4090;49.270;8.696;2023-05-19T00:02:58;17.40;78.70
8095;DHT22;4090;49.270;8.696;2023-05-19T00:05:41;17.40;78.60
8095;DHT22;4090;49.270;8.696;2023-05-19T00:08:25;17.40;78.70
8095;DHT22;4090;49.270;8.696;2023-05-19T00:11:08;17.30;78.80
8095;DHT22;4090;49.270;8.696;2023-05-19T00:13:52;17.30;79.00
8095;DHT22;4090;49.270;8.696;2023-05-19T00:16:35;17.30;79.20
8095;DHT22;4090;49.270;8.696;2023-05-19T00:19:20;17.30;79.20
8095;DHT22;4090;49.270;8.696;2023-05-19T00:22:03;17.30;79.20
8095;DHT22;4090;49.270;8.696;2023-05-19T00:24:45;17.30;79.40
8095;DHT22;4090;49.270;8.696;2023-05-19T00:27:27;17.30;79.40
8095;DHT22;4090;49.270;8.696;2023-05-19T00:30:10;17.20;79.40
8095;DHT22;4090;49.270;8.696;2023-05-19T00:32:53;17.20;79.60
8095;DHT22;4090;49.270;8.696;2023-05-19T00:35:35;17.20;80.00
8095;DHT22;4090;49.270;8.696;2023-05-19T00:38:16;17.20;79.90
8095;DHT22;4090;49.270;8.696;2023-05-19T00:40:58;17.10;80.00
8095;DHT22;4090;49.270;8.696;2023-05-19T00:43:40;17.10;80.00
8095;DHT22;4090;49.270;8.696;2023-05-19T00:46:23;17.00;80.10
8095;DHT22;4090;49.270;8.696;2023-05-19T00:49:05;17.10;80.30
8095;DHT22;4090;49.270;8.696;2023-05-19T00:51:47;17.00;80.30
8095;DHT22;4090;49.270;8.696;2023-05-19T00:54:29;17.00;80.50
8095;DHT22;4090;49.270;8.696;2023-05-19T00:57:11;17.00;80.50
8095;DHT22;4090;49.270;8.696;2023-05-19T00:59:53;17.00;81.00
8095;DHT22;4090;49.270;8.696;2023-05-19T01:02:37;16.90;80.90
8095;DHT22;4090;49.270;8.696;2023-05-19T01:05:19;16.90;81.10
8095;DHT22;4090;49.270;8.696;2023-05-19T01:08:01;16.90;81.00
8095;DHT22;4090;49.270;8.696;2023-05-19T01:10:43;16.90;81.20
8095;DHT22;4090;49.270;8.696;2023-05-19T01:13:25;16.80;81.40
8095;DHT22;4090;49.270;8.696;2023-05-19T01:16:09;16.80;81.40
8095;DHT22;4090;49.270;8.696;2023-05-19T01:18:56;16.80;81.30
8095;DHT22;4090;49.270;8.696;2023-05-19T01:21:49;16.80;81.30
8095;DHT22;4090;49.270;8.696;2023-05-19T01:24:43;16.80;81.60
8095;DHT22;4090;49.270;8.696;2023-05-19T01:27:41;16.70;81.40
8095;DHT22;4090;49.270;8.696;2023-05-19T01:30:26;16.70;81.40
8095;DHT22;4090;49.270;8.696;2023-05-19T01:33:10;16.80;81.80
8095;DHT22;4090;49.270;8.696;2023-05-19T01:35:53;16.60;81.70
8095;DHT22;4090;49.270;8.696;2023-05-19T01:38:35;16.60;81.80
8095;DHT22;4090;49.270;8.696;2023-05-19T01:41:18;16.60;81.90
8095;DHT22;4090;49.270;8.696;2023-05-19T01:44:00;16.50;82.00
8095;DHT22;4090;49.270;8.696;2023-05-19T01:46:43;16.50;82.00
8095;DHT22;4090;49.270;8.696;2023-05-19T01:49:26;16.60;82.10
8095;DHT22;4090;49.270;8.696;2023-05-19T01:52:07;16.50;82.20
8095;DHT22;4090;49.270;8.696;2023-05-19T01:54:49;16.50;82.20
8095;DHT22;4090;49.270;8.696;2023-05-19T01:57:32;16.50;82.30
8095;DHT22;4090;49.270;8.696;2023-05-19T02:00:17;16.40;82.20
8095;DHT22;4090;49.270;8.696;2023-05-19T02:03:07;16.40;82.40
8095;DHT22;4090;49.270;8.696;2023-05-19T02:05:54;16.40;82.50
8095;DHT22;4090;49.270;8.696;2023-05-19T02:08:37;16.30;82.50
8095;DHT22;4090;49.270;8.696;2023-05-19T02:11:24;16.30;82.50
8095;DHT22;4090;49.270;8.696;2023-05-19T02:14:07;16.30;82.80
8095;DHT22;4090;49.270;8.696;2023-05-19T02:16:50;16.30;82.50
8095;DHT22;4090;49.270;8.696;2023-05-19T02:19:37;16.20;82.40
8095;DHT22;4090;49.270;8.696;2023-05-19T02:22:19;16.20;82.50
8095;DHT22;4090;49.270;8.696;2023-05-19T02:25:01;16.20;82.50
8095;DHT22;4090;49.270;8.696;2023-05-19T02:27:46;16.20;82.50
8095;DHT22;4090;49.270;8.696;2023-05-19T02:30:28;16.20;82.90
8095;DHT22;4090;49.270;8.696;2023-05-19T02:33:13;16.20;82.60
8095;DHT22;4090;49.270;8.696;2023-05-19T02:35:58;16.20;82.50
8095;DHT22;4090;49.270;8.696;2023-05-19T02:38:40;16.20;82.50
8095;DHT22;4090;49.270;8.696;2023-05-19T02:41:21;16.20;82.80
8095;DHT22;4090;49.270;8.696;2023-05-19T02:44:03;16.20;82.50
8095;DHT22;4090;49.270;8.696;2023-05-19T02:46:46;16.20;82.50
8095;DHT22;4090;49.270;8.696;2023-05-19T02:49:28;16.20;82.40
8095;DHT22;4090;49.270;8.696;2023-05-19T02:52:16;16.20;82.20
8095;DHT22;4090;49.270;8.696;2023-05-19T02:54:58;16.20;82.40
8095;DHT22;4090;49.270;8.696;2023-05-19T02:57:40;16.10;82.50
8095;DHT22;4090;49.270;8.696;2023-05-19T03:00:22;16.10;82.70
8095;DHT22;4090;49.270;8.696;2023-05-19T03:03:04;16.10;82.40
8095;DHT22;4090;49.270;8.696;2023-05-19T03:05:46;16.10;82.80
8095;DHT22;4090;49.270;8.696;2023-05-19T03:08:29;16.10;82.70
8095;DHT22;4090;49.270;8.696;2023-05-19T03:11:11;16.10;83.00
8095;DHT22;4090;49.270;8.696;2023-05-19T03:13:54;16.10;82.70
8095;DHT22;4090;49.270;8.696;2023-05-19T03:16:36;16.10;83.10
8095;DHT22;4090;49.270;8.696;2023-05-19T03:19:20;16.10;83.10
8095;DHT22;4090;49.270;8.696;2023-05-19T03:22:02;16.00;83.30
8095;DHT22;4090;49.270;8.696;2023-05-19T03:24:45;16.10;83.00
8095;DHT22;4090;49.270;8.696;2023-05-19T03:27:30;16.10;83.00
8095;DHT22;4090;49.270;8.696;2023-05-19T03:30:12;16.00;83.00
8095;DHT22;4090;49.270;8.696;2023-05-19T03:33:07;16.00;83.60
8095;DHT22;4090;49.270;8.696;2023-05-19T03:35:49;16.00;83.30
8095;DHT22;4090;49.270;8.696;2023-05-19T03:38:32;15.90;83.10
8095;DHT22;4090;49.270;8.696;2023-05-19T03:41:15;15.90;83.30
8095;DHT22;4090;49.270;8.696;2023-05-19T03:43:57;15.90;83.30
8095;DHT22;4090;49.270;8.696;2023-05-19T03:46:39;16.10;83.90
8095;DHT22;4090;49.270;8.696;2023-05-19T03:49:51;15.90;83.70
8095;DHT22;4090;49.270;8.696;2023-05-19T03:52:58;15.90;83.80
8095;DHT22;4090;49.270;8.696;2023-05-19T03:55:46;15.90;83.50
8095;DHT22;4090;49.270;8.696;2023-05-19T03:58:30;15.90;83.70
8095;DHT22;4090;49.270;8.696;2023-05-19T04:01:12;15.90;83.50
8095;DHT22;4090;49.270;8.696;2023-05-19T04:03:53;15.90;83.50
8095;DHT22;4090;49.270;8.696;2023-05-19T04:06:37;15.90;84.80
8095;DHT22;4090;49.270;8.696;2023-05-19T04:09:18;15.90;83.50
8095;DHT22;4090;49.270;8.696;2023-05-19T04:12:00;15.90;83.40
8095;DHT22;4090;49.270;8.696;2023-05-19T04:14:44;15.90;83.70
8095;DHT22;4090;49.270;8.696;2023-05-19T04:17:26;15.80;84.00
8095;DHT22;4090;49.270;8.696;2023-05-19T04:20:09;15.80;83.70
8095;DHT22;4090;49.270;8.696;2023-05-19T04:22:51;15.80;83.80
8095;DHT22;4090;49.270;8.696;2023-05-19T04:25:32;15.80;83.70
8095;DHT22;4090;49.270;8.696;2023-05-19T04:28:15;15.80;83.90
8095;DHT22;4090;49.270;8.696;2023-05-19T04:30:58;15.80;84.20
8095;DHT22;4090;49.270;8.696;2023-05-19T04:33:40;15.90;84.80
8095;DHT22;4090;49.270;8.696;2023-05-19T04:36:22;15.80;85.20
8095;DHT22;4090;49.270;8.696;2023-05-19T04:39:06;15.80;85.70
8095;DHT22;4090;49.270;8.696;2023-05-19T04:41:49;15.90;86.00
8095;DHT22;4090;49.270;8.696;2023-05-19T04:44:34;15.90;86.50
8095;DHT22;4090;49.270;8.696;2023-05-19T04:47:19;15.90;86.40
8095;DHT22;4090;49.270;8.696;2023-05-19T04:50:02;15.90;86.30
8095;DHT22;4090;49.270;8.696;2023-05-19T04:52:44;15.90;86.80
8095;DHT22;4090;49.270;8.696;2023-05-19T04:55:26;15.90;86.70
8095;DHT22;4090;49.270;8.696;2023-05-19T04:58:08;15.80;86.50
8095;DHT22;4090;49.270;8.696;2023-05-19T05:00:50;15.80;86.20
8095;DHT22;4090;49.270;8.696;2023-05-19T05:03:33;15.80;86.10
8095;DHT22;4090;49.270;8.696;2023-05-19T05:06:15;15.80;86.30
8095;DHT22;4090;49.270;8.696;2023-05-19T05:08:57;15.80;86.60
8095;DHT22;4090;49.270;8.696;2023-05-19T05:11:39;15.80;86.60
8095;DHT22;4090;49.270;8.696;2023-05-19T05:14:22;15.80;86.90
8095;DHT22;4090;49.270;8.696;2023-05-19T05:17:04;15.70;87.00
8095;DHT22;4090;49.270;8.696;2023-05-19T05:19:48;15.70;86.90
8095;DHT22;4090;49.270;8.696;2023-05-19T05:22:30;15.80;87.40
8095;DHT22;4090;49.270;8.696;2023-05-19T05:25:13;15.70;87.20
8095;DHT22;4090;49.270;8.696;2023-05-19T05:27:56;15.70;87.20
8095;DHT22;4090;49.270;8.696;2023-05-19T05:30:44;15.80;88.00
8095;DHT22;4090;49.270;8.696;2023-05-19T05:33:28;15.80;87.90
8095;DHT22;4090;49.270;8.696;2023-05-19T05:36:11;15.80;87.90
8095;DHT22;4090;49.270;8.696;2023-05-19T05:38:53;15.80;88.30
8095;DHT22;4090;49.270;8.696;2023-05-19T05:41:36;15.80;88.30
8095;DHT22;4090;49.270;8.696;2023-05-19T05:44:23;15.80;87.70
8095;DHT22;4090;49.270;8.696;2023-05-19T05:47:06;15.80;88.30
8095;DHT22;4090;49.270;8.696;2023-05-19T05:49:48;15.80;88.70
8095;DHT22;4090;49.270;8.696;2023-05-19T05:52:31;15.80;89.00
8095;DHT22;4090;49.270;8.696;2023-05-19T05:55:14;15.90;89.00
8095;DHT22;4090;49.270;8.696;2023-05-19T05:57:56;15.90;89.10
8095;DHT22;4090;49.270;8.696;2023-05-19T06:00:39;15.90;89.20
8095;DHT22;4090;49.270;8.696;2023-05-19T06:03:22;16.00;89.50
8095;DHT22;4090;49.270;8.696;2023-05-19T06:06:05;16.00;89.70
8095;DHT22;4090;49.270;8.696;2023-05-19T06:08:49;16.00;89.30
8095;DHT22;4090;49.270;8.696;2023-05-19T06:11:31;16.00;89.90
8095;DHT22;4090;49.270;8.696;2023-05-19T06:14:14;16.10;89.00
8095;DHT22;4090;49.270;8.696;2023-05-19T06:17:24;15.90;89.10
8095;DHT22;4090;49.270;8.696;2023-05-19T06:20:06;16.00;89.20
8095;DHT22;4090;49.270;8.696;2023-05-19T06:22:49;16.00;88.80
8095;DHT22;4090;49.270;8.696;2023-05-19T06:25:35;16.00;88.40
8095;DHT22;4090;49.270;8.696;2023-05-19T06:28:16;16.00;88.80
8095;DHT22;4090;49.270;8.696;2023-05-19T06:30:58;16.00;88.70
8095;DHT22;4090;49.270;8.696;2023-05-19T06:33:59;16.00;88.70
8095;DHT22;4090;49.270;8.696;2023-05-19T06:36:41;16.10;90.20
8095;DHT22;4090;49.270;8.696;2023-05-19T06:39:24;16.00;89.60
8095;DHT22;4090;49.270;8.696;2023-05-19T06:42:07;16.10;89.40
8095;DHT22;4090;49.270;8.696;2023-05-19T06:45:24;16.10;88.80
8095;DHT22;4090;49.270;8.696;2023-05-19T06:48:06;16.10;89.00
8095;DHT22;4090;49.270;8.696;2023-05-19T06:50:50;16.10;89.20
8095;DHT22;4090;49.270;8.696;2023-05-19T06:53:33;16.10;90.20
8095;DHT22;4090;49.270;8.696;2023-05-19T06:56:20;16.20;90.20
8095;DHT22;4090;49.270;8.696;2023-05-19T06:59:03;16.20;90.10
8095;DHT22;4090;49.270;8.696;2023-05-19T07:01:50;16.20;90.30
8095;DHT22;4090;49.270;8.696;2023-05-19T07:04:32;16.30;89.30
8095;DHT22;4090;49.270;8.696;2023-05-19T07:07:14;16.30;89.00
8095;DHT22;4090;49.270;8.696;2023-05-19T07:09:56;16.40;89.00
8095;DHT22;4090;49.270;8.696;2023-05-19T07:12:39;16.40;88.70
8095;DHT22;4090;49.270;8.696;2023-05-19T07:15:23;16.40;88.40
8095;DHT22;4090;49.270;8.696;2023-05-19T07:18:05;16.40;88.30
8095;DHT22;4090;49.270;8.696;2023-05-19T07:20:46;16.40;88.70
8095;DHT22;4090;49.270;8.696;2023-05-19T07:23:28;16.50;89.00
8095;DHT22;4090;49.270;8.696;2023-05-19T07:26:10;16.50;87.40
8095;DHT22;4090;49.270;8.696;2023-05-19T07:28:51;16.50;87.30
8095;DHT22;4090;49.270;8.696;2023-05-19T07:31:34;16.60;87.00
8095;DHT22;4090;49.270;8.696;2023-05-19T07:34:16;16.60;87.00
8095;DHT22;4090;49.270;8.696;2023-05-19T07:36:58;16.60;87.20
8095;DHT22;4090;49.270;8.696;2023-05-19T07:39:39;16.60;88.10
8095;DHT22;4090;49.270;8.696;2023-05-19T07:42:21;16.70;87.20
8095;DHT22;4090;49.270;8.696;2023-05-19T07:45:03;16.70;87.00
8095;DHT22;4090;49.270;8.696;2023-05-19T07:47:46;16.70;87.20
8095;DHT22;4090;49.270;8.696;2023-05-19T07:50:28;16.70;87.60
8095;DHT22;4090;49.270;8.696;2023-05-19T07:53:10;16.80;87.70
8095;DHT22;4090;49.270;8.696;2023-05-19T07:55:52;16.80;87.40
8095;DHT22;4090;49.270;8.696;2023-05-19T07:58:33;16.80;87.50
8095;DHT22;4090;49.270;8.696;2023-05-19T08:01:15;16.80;87.90
8095;DHT22;4090;49.270;8.696;2023-05-19T08:03:58;16.80;88.00
8095;DHT22;4090;49.270;8.696;2023-05-19T08:06:40;16.90;87.50
8095;DHT22;4090;49.270;8.696;2023-05-19T08:09:23;16.90;87.50
8095;DHT22;4090;49.270;8.696;2023-05-19T08:12:05;17.00;87.90
8095;DHT22;4090;49.270;8.696;2023-05-19T08:14:47;17.00;87.70
8095;DHT22;4090;49.270;8.696;2023-05-19T08:17:28;17.00;87.60
8095;DHT22;4090;49.270;8.696;2023-05-19T08:20:12;17.00;87.50
8095;DHT22;4090;49.270;8.696;2023-05-19T08:22:54;17.10;85.30
8095;DHT22;4090;49.270;8.696;2023-05-19T08:25:35;17.10;85.30
8095;DHT22;4090;49.270;8.696;2023-05-19T08:28:17;17.10;84.80
8095;DHT22;4090;49.270;8.696;2023-05-19T08:30:59;17.20;84.30
8095;DHT22;4090;49.270;8.696;2023-05-19T08:33:40;17.20;85.00
8095;DHT22;4090;49.270;8.696;2023-05-19T08:36:24;17.20;85.90
8095;DHT22;4090;49.270;8.696;2023-05-19T08:39:05;17.30;85.50
8095;DHT22;4090;49.270;8.696;2023-05-19T08:41:47;17.30;84.20
8095;DHT22;4090;49.270;8.696;2023-05-19T08:44:29;17.30;82.70
8095;DHT22;4090;49.270;8.696;2023-05-19T08:47:11;17.40;82.40
8095;DHT22;4090;49.270;8.696;2023-05-19T08:49:54;17.40;82.50
8095;DHT22;4090;49.270;8.696;2023-05-19T08:52:45;17.50;82.90
8095;DHT22;4090;49.270;8.696;2023-05-19T08:55:30;17.50;81.80
8095;DHT22;4090;49.270;8.696;2023-05-19T08:58:13;17.50;81.50
8095;DHT22;4090;49.270;8.696;2023-05-19T09:00:56;17.60;80.30
8095;DHT22;4090;49.270;8.696;2023-05-19T09:03:38;17.70;81.20
8095;DHT22;4090;49.270;8.696;2023-05-19T09:06:20;17.70;81.40
8095;DHT22;4090;49.270;8.696;2023-05-19T09:09:03;17.80;81.30
8095;DHT22;4090;49.270;8.696;2023-05-19T09:11:45;17.80;82.20
8095;DHT22;4090;49.270;8.696;2023-05-19T09:14:27;17.90;81.80
8095;DHT22;4090;49.270;8.696;2023-05-19T09:17:10;18.00;81.80
8095;DHT22;4090;49.270;8.696;2023-05-19T09:19:51;18.00;80.50
8095;DHT22;4090;49.270;8.696;2023-05-19T09:22:33;18.10;82.10
8095;DHT22;4090;49.270;8.696;2023-05-19T09:25:22;18.10;81.80
8095;DHT22;4090;49.270;8.696;2023-05-19T09:28:04;18.20;82.20
8095;DHT22;4090;49.270;8.696;2023-05-19T09:30:50;18.30;82.30
8095;DHT22;4090;49.270;8.696;2023-05-19T09:33:39;18.30;81.90
8095;DHT22;4090;49.270;8.696;2023-05-19T09:36:21;18.30;81.50
8095;DHT22;4090;49.270;8.696;2023-05-19T09:39:05;18.40;82.00
8095;DHT22;4090;49.270;8.696;2023-05-19T09:41:54;18.40;81.90
8095;DHT22;4090;49.270;8.696;2023-05-19T09:44:37;18.50;80.80
8095;DHT22;4090;49.270;8.696;2023-05-19T09:47:19;18.60;81.20
8095;DHT22;4090;49.270;8.696;2023-05-19T09:50:01;18.70;81.80
8095;DHT22;4090;49.270;8.696;2023-05-19T09:52:43;18.70;82.60
8095;DHT22;4090;49.270;8.696;2023-05-19T09:55:25;18.80;81.50
8095;DHT22;4090;49.270;8.696;2023-05-19T09:58:10;18.80;80.40
8095;DHT22;4090;49.270;8.696;2023-05-19T10:00:56;18.80;80.90
8095;DHT22;4090;49.270;8.696;2023-05-19T10:03:38;18.90;80.30
8095;DHT22;4090;49.270;8.696;2023-05-19T10:06:20;19.00;79.60
8095;DHT22;4090;49.270;8.696;2023-05-19T10:09:02;19.00;79.30
8095;DHT22;4090;49.270;8.696;2023-05-19T10:11:44;19.10;78.80
8095;DHT22;4090;49.270;8.696;2023-05-19T10:14:27;19.10;79.00
8095;DHT22;4090;49.270;8.696;2023-05-19T10:17:09;19.20;78.80
8095;DHT22;4090;49.270;8.696;2023-05-19T10:19:52;19.30;77.90
8095;DHT22;4090;49.270;8.696;2023-05-19T10:22:35;19.40;78.40
8095;DHT22;4090;49.270;8.696;2023-05-19T10:25:17;19.40;78.50
8095;DHT22;4090;49.270;8.696;2023-05-19T10:28:00;19.50;79.70
8095;DHT22;4090;49.270;8.696;2023-05-19T10:30:44;19.60;78.60
8095;DHT22;4090;49.270;8.696;2023-05-19T10:33:27;19.70;78.60
8095;DHT22;4090;49.270;8.696;2023-05-19T10:36:21;19.70;77.50
8095;DHT22;4090;49.270;8.696;2023-05-19T10:39:06;19.80;75.30
8095;DHT22;4090;49.270;8.696;2023-05-19T10:41:55;19.90;75.00
8095;DHT22;4090;49.270;8.696;2023-05-19T10:44:39;19.90;75.30
8095;DHT22;4090;49.270;8.696;2023-05-19T10:47:28;20.10;74.40
8095;DHT22;4090;49.270;8.696;2023-05-19T10:50:10;20.20;74.40
8095;DHT22;4090;49.270;8.696;2023-05-19T10:52:52;20.30;76.00
8095;DHT22;4090;49.270;8.696;2023-05-19T10:55:43;20.30;74.30
8095;DHT22;4090;49.270;8.696;2023-05-19T10:58:38;20.40;74.10
8095;DHT22;4090;49.270;8.696;2023-05-19T11:01:20;20.50;73.90
8095;DHT22;4090;49.270;8.696;2023-05-19T11:04:06;20.60;73.10
8095;DHT22;4090;49.270;8.696;2023-05-19T11:06:49;20.70;72.60
8095;DHT22;4090;49.270;8.696;2023-05-19T11:09:31;20.80;73.70
8095;DHT22;4090;49.270;8.696;2023-05-19T11:12:18;20.90;74.90
8095;DHT22;4090;49.270;8.696;2023-05-19T11:15:00;20.90;74.50
8095;DHT22;4090;49.270;8.696;2023-05-19T11:17:46;21.00;74.40
8095;DHT22;4090;49.270;8.696;2023-05-19T11:20:29;21.00;74.40
8095;DHT22;4090;49.270;8.696;2023-05-19T11:23:14;21.10;76.00
8095;DHT22;4090;49.270;8.696;2023-05-19T11:25:57;21.10;75.70
8095;DHT22;4090;49.270;8.696;2023-05-19T11:28:42;21.10;76.70
8095;DHT22;4090;49.270;8.696;2023-05-19T11:31:23;21.10;75.80
8095;DHT22;4090;49.270;8.696;2023-05-19T11:34:07;21.20;75.90
8095;DHT22;4090;49.270;8.696;2023-05-19T11:36:50;21.30;75.40
8095;DHT22;4090;49.270;8.696;2023-05-19T11:39:33;21.40;73.40
8095;DHT22;4090;49.270;8.696;2023-05-19T11:42:15;21.50;73.40
8095;DHT22;4090;49.270;8.696;2023-05-19T11:44:56;21.60;73.90
8095;DHT22;4090;49.270;8.696;2023-05-19T11:47:38;21.60;73.50
8095;DHT22;4090;49.270;8.696;2023-05-19T11:50:20;21.70;73.70
8095;DHT22;4090;49.270;8.696;2023-05-19T11:53:03;21.90;74.50
8095;DHT22;4090;49.270;8.696;2023-05-19T11:55:45;22.00;75.00
8095;DHT22;4090;49.270;8.696;2023-05-19T11:58:27;22.20;74.50
8095;DHT22;4090;49.270;8.696;2023-05-19T12:01:09;22.20;74.50
8095;DHT22;4090;49.270;8.696;2023-05-19T12:03:53;22.40;74.30
8095;DHT22;4090;49.270;8.696;2023-05-19T12:06:34;22.50;74.10
8095;DHT22;4090;49.270;8.696;2023-05-19T12:09:19;22.50;73.40
8095;DHT22;4090;49.270;8.696;2023-05-19T12:12:02;22.70;74.30
8095;DHT22;4090;49.270;8.696;2023-05-19T12:14:45;22.70;73.20
8095;DHT22;4090;49.270;8.696;2023-05-19T12:17:26;22.80;73.40
8095;DHT22;4090;49.270;8.696;2023-05-19T12:20:09;22.80;73.50
8095;DHT22;4090;49.270;8.696;2023-05-19T12:22:51;22.80;71.70
8095;DHT22;4090;49.270;8.696;2023-05-19T12:25:34;22.90;71.90
8095;DHT22;4090;49.270;8.696;2023-05-19T12:28:18;22.90;71.80
8095;DHT22;4090;49.270;8.696;2023-05-19T12:31:00;22.90;71.80
8095;DHT22;4090;49.270;8.696;2023-05-19T12:33:42;22.90;72.00
8095;DHT22;4090;49.270;8.696;2023-05-19T12:36:24;22.90;71.70
8095;DHT22;4090;49.270;8.696;2023-05-19T12:39:08;22.90;72.50
8095;DHT22;4090;49.270;8.696;2023-05-19T12:41:52;22.90;73.50
8095;DHT22;4090;49.270;8.696;2023-05-19T12:44:35;22.90;73.00
8095;DHT22;4090;49.270;8.696;2023-05-19T12:47:18;22.80;72.00
8095;DHT22;4090;49.270;8.696;2023-05-19T12:50:00;22.80;71.70
8095;DHT22;4090;49.270;8.696;2023-05-19T12:52:44;22.80;71.60
8095;DHT22;4090;49.270;8.696;2023-05-19T12:55:25;22.90;72.30
8095;DHT22;4090;49.270;8.696;2023-05-19T12:58:09;22.90;72.60
8095;DHT22;4090;49.270;8.696;2023-05-19T13:00:51;22.90;73.00
8095;DHT22;4090;49.270;8.696;2023-05-19T13:03:38;23.00;71.40
8095;DHT22;4090;49.270;8.696;2023-05-19T13:06:20;23.00;72.30
8095;DHT22;4090;49.270;8.696;2023-05-19T13:09:02;23.00;71.20
8095;DHT22;4090;49.270;8.696;2023-05-19T13:11:44;23.00;70.60
8095;DHT22;4090;49.270;8.696;2023-05-19T13:14:48;23.10;72.50
8095;DHT22;4090;49.270;8.696;2023-05-19T13:17:48;23.10;71.30
8095;DHT22;4090;49.270;8.696;2023-05-19T13:20:29;23.10;70.20
8095;DHT22;4090;49.270;8.696;2023-05-19T13:23:12;23.10;70.20
8095;DHT22;4090;49.270;8.696;2023-05-19T13:25:54;23.10;70.00
8095;DHT22;4090;49.270;8.696;2023-05-19T13:28:36;23.00;70.00
8095;DHT22;4090;49.270;8.696;2023-05-19T13:31:19;23.00;70.30
8095;DHT22;4090;49.270;8.696;2023-05-19T13:34:01;23.00;71.30
8095;DHT22;4090;49.270;8.696;2023-05-19T13:36:43;23.00;71.60
8095;DHT22;4090;49.270;8.696;2023-05-19T13:39:27;23.00;71.70
8095;DHT22;4090;49.270;8.696;2023-05-19T13:42:09;22.90;71.20
8095;DHT22;4090;49.270;8.696;2023-05-19T13:44:52;22.90;72.80
8095;DHT22;4090;49.270;8.696;2023-05-19T13:47:36;22.90;71.80
8095;DHT22;4090;49.270;8.696;2023-05-19T13:50:17;22.90;72.70
8095;DHT22;4090;49.270;8.696;2023-05-19T13:52:59;22.80;72.20
8095;DHT22;4090;49.270;8.696;2023-05-19T13:55:41;22.80;71.90
8095;DHT22;4090;49.270;8.696;2023-05-19T13:58:23;22.80;71.00
8095;DHT22;4090;49.270;8.696;2023-05-19T14:01:04;22.70;72.10
8095;DHT22;4090;49.270;8.696;2023-05-19T14:03:47;22.70;71.60
8095;DHT22;4090;49.270;8.696;2023-05-19T14:06:29;22.60;71.50
8095;DHT22;4090;49.270;8.696;2023-05-19T14:09:11;22.60;72.60
8095;DHT22;4090;49.270;8.696;2023-05-19T14:11:53;22.50;72.60
8095;DHT22;4090;49.270;8.696;2023-05-19T14:14:35;22.50;73.40
8095;DHT22;4090;49.270;8.696;2023-05-19T14:17:16;22.50;73.50
8095;DHT22;4090;49.270;8.696;2023-05-19T14:20:00;22.40;73.40
8095;DHT22;4090;49.270;8.696;2023-05-19T14:22:42;22.40;73.40
8095;DHT22;4090;49.270;8.696;2023-05-19T14:25:23;22.40;73.20
8095;DHT22;4090;49.270;8.696;2023-05-19T14:28:05;22.40;73.00
8095;DHT22;4090;49.270;8.696;2023-05-19T14:30:47;22.40;73.50
8095;DHT22;4090;49.270;8.696;2023-05-19T14:33:29;22.30;73.50
8095;DHT22;4090;49.270;8.696;2023-05-19T14:36:12;22.30;74.70
8095;DHT22;4090;49.270;8.696;2023-05-19T14:38:53;22.30;75.20
8095;DHT22;4090;49.270;8.696;2023-05-19T14:41:36;22.20;75.80
8095;DHT22;4090;49.270;8.696;2023-05-19T14:44:17;22.20;76.20
8095;DHT22;4090;49.270;8.696;2023-05-19T14:47:00;22.20;75.70
8095;DHT22;4090;49.270;8.696;2023-05-19T14:49:42;22.10;75.80
8095;DHT22;4090;49.270;8.696;2023-05-19T14:52:25;22.10;75.40
8095;DHT22;4090;49.270;8.696;2023-05-19T14:55:07;22.10;76.70
8095;DHT22;4090;49.270;8.696;2023-05-19T14:57:48;22.10;77.10
8095;DHT22;4090;49.270;8.696;2023-05-19T15:00:30;22.00;75.70
8095;DHT22;4090;49.270;8.696;2023-05-19T15:03:12;22.00;75.10
8095;DHT22;4090;49.270;8.696;2023-05-19T15:05:54;22.00;76.00
8095;DHT22;4090;49.270;8.696;2023-05-19T15:08:37;22.00;76.90
8095;DHT22;4090;49.270;8.696;2023-05-19T15:11:20;22.00;77.30
8095;DHT22;4090;49.270;8.696;2023-05-19T15:14:02;21.90;77.60
8095;DHT22;4090;49.270;8.696;2023-05-19T15:16:44;22.00;78.80
8095;DHT22;4090;49.270;8.696;2023-05-19T15:19:26;21.90;78.20
8095;DHT22;4090;49.270;8.696;2023-05-19T15:22:07;22.00;77.80
8095;DHT22;4090;49.270;8.696;2023-05-19T15:24:50;22.00;77.30
8095;DHT22;4090;49.270;8.696;2023-05-19T15:27:33;21.90;76.90
8095;DHT22;4090;49.270;8.696;2023-05-19T15:30:15;21.90;76.30
8095;DHT22;4090;49.270;8.696;2023-05-19T15:32:57;21.90;75.80
8095;DHT22;4090;49.270;8.696;2023-05-19T15:35:39;21.90;75.60
8095;DHT22;4090;49.270;8.696;2023-05-19T15:38:20;21.90;75.90
8095;DHT22;4090;49.270;8.696;2023-05-19T15:41:06;21.90;76.10
8095;DHT22;4090;49.270;8.696;2023-05-19T15:43:48;21.90;76.90
8095;DHT22;4090;49.270;8.696;2023-05-19T15:46:29;21.90;76.20
8095;DHT22;4090;49.270;8.696;2023-05-19T15:49:11;21.90;75.90
8095;DHT22;4090;49.270;8.696;2023-05-19T15:51:53;21.90;76.30
8095;DHT22;4090;49.270;8.696;2023-05-19T15:54:35;21.90;76.90
8095;DHT22;4090;49.270;8.696;2023-05-19T15:57:18;21.90;77.00
8095;DHT22;4090;49.270;8.696;2023-05-19T15:59:59;21.80;78.00
8095;DHT22;4090;49.270;8.696;2023-05-19T16:02:41;21.80;77.30
8095;DHT22;4090;49.270;8.696;2023-05-19T16:05:23;21.80;77.00
8095;DHT22;4090;49.270;8.696;2023-05-19T16:08:05;21.80;77.40
8095;DHT22;4090;49.270;8.696;2023-05-19T16:10:46;21.70;78.20
8095;DHT22;4090;49.270;8.696;2023-05-19T16:13:29;21.70;78.90
8095;DHT22;4090;49.270;8.696;2023-05-19T16:16:13;21.70;78.80
8095;DHT22;4090;49.270;8.696;2023-05-19T16:18:54;21.60;79.10
8095;DHT22;4090;49.270;8.696;2023-05-19T16:21:36;21.60;78.70
8095;DHT22;4090;49.270;8.696;2023-05-19T16:24:18;21.60;79.70
8095;DHT22;4090;49.270;8.696;2023-05-19T16:26:59;21.60;79.60
8095;DHT22;4090;49.270;8.696;2023-05-19T16:29:42;21.50;79.40
8095;DHT22;4090;49.270;8.696;2023-05-19T16:32:24;21.50;79.80
8095;DHT22;4090;49.270;8.696;2023-05-19T16:35:06;21.50;80.10
8095;DHT22;4090;49.270;8.696;2023-05-19T16:37:48;21.50;80.60
8095;DHT22;4090;49.270;8.696;2023-05-19T16:40:30;21.50;80.60
8095;DHT22;4090;49.270;8.696;2023-05-19T16:43:12;21.40;80.80
8095;DHT22;4090;49.270;8.696;2023-05-19T16:45:55;21.40;80.70
8095;DHT22;4090;49.270;8.696;2023-05-19T16:48:37;21.40;81.20
8095;DHT22;4090;49.270;8.696;2023-05-19T16:51:18;21.40;81.20
8095;DHT22;4090;49.270;8.696;2023-05-19T16:54:00;21.40;81.40
8095;DHT22;4090;49.270;8.696;2023-05-19T16:56:42;21.30;82.20
8095;DHT22;4090;49.270;8.696;2023-05-19T16:59:24;21.30;82.50
8095;DHT22;4090;49.270;8.696;2023-05-19T17:02:07;21.30;82.60
8095;DHT22;4090;49.270;8.696;2023-05-19T17:04:49;21.30;82.40
8095;DHT22;4090;49.270;8.696;2023-05-19T17:07:30;21.30;84.90
8095;DHT22;4090;49.270;8.696;2023-05-19T17:10:12;21.20;84.90
8095;DHT22;4090;49.270;8.696;2023-05-19T17:12:54;21.20;84.10
8095;DHT22;4090;49.270;8.696;2023-05-19T17:15:36;21.20;83.70
8095;DHT22;4090;49.270;8.696;2023-05-19T17:18:19;21.20;83.10
8095;DHT22;4090;49.270;8.696;2023-05-19T17:21:01;21.20;83.20
8095;DHT22;4090;49.270;8.696;2023-05-19T17:23:44;21.20;83.70
8095;DHT22;4090;49.270;8.696;2023-05-19T17:26:26;21.20;85.80
8095;DHT22;4090;49.270;8.696;2023-05-19T17:29:08;21.10;85.10
8095;DHT22;4090;49.270;8.696;2023-05-19T17:31:49;21.10;85.00
8095;DHT22;4090;49.270;8.696;2023-05-19T17:34:32;21.10;84.70
8095;DHT22;4090;49.270;8.696;2023-05-19T17:37:14;21.10;85.10
8095;DHT22;4090;49.270;8.696;2023-05-19T17:39:58;21.00;84.90
8095;DHT22;4090;49.270;8.696;2023-05-19T17:42:40;21.00;84.20
8095;DHT22;4090;49.270;8.696;2023-05-19T17:45:22;21.00;84.50